Time;durP1;ratioP1;P1;durP2;ratioP2;P2;SDS_P1;SDS_P2;PMS_P1;PMS_P2;Temp;Humidity;BMP_temperature;BMP_pressure;BME280_temperature;BME280_humidity;BME280_pressure;Samples;Min_cycle;Max_cycle;Signal;HPM_P1;HPM_P2
2022/11/23 00:02:14;;;;;;;;;7.00;4.67;;;;;;;;5127971;27;45249;-87
2022/11/23 00:05:07;;;;;;;;;3.67;2.67;;;;;;;;5126726;27;44996;-88
2022/11/23 00:07:57;;;;;;;;;6.00;4.00;;;;;;;;5135293;27;45491;-86
2022/11/23 00:13:56;;;;;;;;;4.33;3.33;;;;;;;;5096024;27;45923;-84
2022/11/23 00:16:35;;;;;;;;;;;;;;;;;;;;;
2022/11/23 00:19:37;;;;;;;;;3.33;2.33;;;;;;;;5119715;27;75091;-85
2022/11/23 00:30:12;;;;;;;;;;;;;;;;;;;;;
2022/11/23 00:32:33;;;;;;;;;;;;;;;;;;;;;
2022/11/23 00:35:08;;;;;;;;;9.33;4.00;;;;;;;;4931212;28;74244;-87
2022/11/23 00:37:59;;;;;;;;;6.00;4.67;;;;;;;;4912567;28;45408;-88
2022/11/23 00:50:08;;;;;;;;;4.00;4.00;;;;;;;;5008997;28;45932;-86
2022/11/23 01:05:52;;;;;;;;;4.00;3.67;;;;;;;;4997930;28;44817;-88
2022/11/23 01:11:07;;;;;;;;;6.00;2.00;;;;;;;;5091566;27;45458;-64
2022/11/23 01:13:33;;;;;;;;;7.00;3.33;;;;;;;;5076382;27;45465;-63
2022/11/23 01:15:58;;;;;;;;;6.00;5.00;;;;;;;;5094037;27;45727;-64
2022/11/23 01:18:24;;;;;;;;;8.00;5.00;;;;;;;;5094336;27;46016;-63
2022/11/23 01:20:49;;;;;;;;;5.67;3.33;;;;;;;;5093916;27;45333;-63
2022/11/23 01:23:15;;;;;;;;;2.67;2.67;;;;;;;;5075813;27;45636;-63
2022/11/23 01:25:40;;;;;;;;;4.00;3.00;;;;;;;;5075020;27;46219;-64
2022/11/23 01:28:05;;;;;;;;;3.67;2.00;;;;;;;;5093468;27;46479;-63
2022/11/23 01:30:31;;;;;;;;;5.33;3.00;;;;;;;;5093059;27;45814;-65
2022/11/23 01:32:56;;;;;;;;;3.00;3.00;;;;;;;;5093487;27;45528;-64
2022/11/23 01:35:21;;;;;;;;;5.00;4.67;;;;;;;;5084970;27;45879;-64
2022/11/23 01:37:47;;;;;;;;;4.33;3.00;;;;;;;;5085088;27;45534;-62
2022/11/23 01:40:12;;;;;;;;;5.00;4.00;;;;;;;;5090997;27;45582;-62
2022/11/23 01:42:48;;;;;;;;;7.33;4.00;;;;;;;;5087106;27;45645;-63
2022/11/23 01:45:30;;;;;;;;;3.67;3.67;;;;;;;;5074468;27;45822;-63
2022/11/23 01:47:56;;;;;;;;;3.33;3.33;;;;;;;;5094170;27;45544;-63
2022/11/23 01:50:21;;;;;;;;;4.67;3.00;;;;;;;;5092437;27;45488;-64
2022/11/23 01:52:46;;;;;;;;;3.67;3.33;;;;;;;;5093200;27;45723;-64
2022/11/23 01:55:12;;;;;;;;;5.00;3.00;;;;;;;;5093419;27;45520;-64
2022/11/23 01:57:39;;;;;;;;;6.00;4.00;;;;;;;;5059626;27;47706;-63
2022/11/23 02:00:05;;;;;;;;;4.33;3.33;;;;;;;;5090554;27;45356;-63
2022/11/23 02:02:30;;;;;;;;;5.67;3.00;;;;;;;;5093497;27;45382;-62
2022/11/23 02:04:59;;;;;;;;;5.67;3.67;;;;;;;;5093094;27;45582;-63
2022/11/23 02:07:25;;;;;;;;;2.00;1.67;;;;;;;;5098860;27;45443;-64
2022/11/23 02:09:51;;;;;;;;;3.00;3.00;;;;;;;;5065528;27;45399;-63
2022/11/23 02:12:16;;;;;;;;;7.00;3.00;;;;;;;;5085738;27;45893;-62
2022/11/23 02:14:41;;;;;;;;;5.33;2.00;;;;;;;;5092644;27;45862;-63
2022/11/23 02:17:07;;;;;;;;;5.00;3.33;;;;;;;;5091950;27;46697;-65
2022/11/23 02:19:40;;;;;;;;;3.00;2.00;;;;;;;;5093124;27;45388;-63
2022/11/23 02:22:09;;;;;;;;;4.33;3.00;;;;;;;;5074680;27;45405;-63
2022/11/23 02:24:40;;;;;;;;;5.00;3.00;;;;;;;;5093315;27;45863;-63
2022/11/23 02:27:06;;;;;;;;;7.00;5.67;;;;;;;;5079768;27;46019;-63
2022/11/23 02:29:33;;;;;;;;;5.67;5.00;;;;;;;;5092383;27;45447;-63
2022/11/23 02:31:58;;;;;;;;;8.00;3.00;;;;;;;;5092894;27;45259;-63
2022/11/23 02:34:23;;;;;;;;;3.00;3.00;;;;;;;;5073556;27;46980;-64
2022/11/23 02:36:50;;;;;;;;;4.00;3.67;;;;;;;;5091553;27;45380;-64
2022/11/23 02:39:18;;;;;;;;;7.33;5.00;;;;;;;;5092890;27;45593;-64
2022/11/23 02:41:45;;;;;;;;;8.00;5.00;;;;;;;;5092896;27;45691;-63
2022/11/23 02:44:17;;;;;;;;;4.00;4.00;;;;;;;;5092650;27;45668;-62
2022/11/23 02:46:42;;;;;;;;;4.33;4.33;;;;;;;;5093051;27;45816;-63
2022/11/23 02:49:07;;;;;;;;;5.00;5.00;;;;;;;;5073884;27;45710;-64
2022/11/23 02:51:32;;;;;;;;;11.67;8.00;;;;;;;;5054396;28;45529;-64
2022/11/23 02:53:58;;;;;;;;;5.00;4.00;;;;;;;;5069424;27;45419;-63
2022/11/23 02:56:23;;;;;;;;;4.33;4.00;;;;;;;;5092136;27;45409;-62
2022/11/23 02:58:48;;;;;;;;;4.67;4.00;;;;;;;;5090681;27;45394;-63
2022/11/23 03:01:13;;;;;;;;;7.67;5.67;;;;;;;;5080300;27;46317;-63
2022/11/23 03:03:39;;;;;;;;;7.67;4.33;;;;;;;;5086307;27;45366;-63
2022/11/23 03:06:04;;;;;;;;;8.67;6.67;;;;;;;;5092429;27;45751;-65
2022/11/23 03:08:29;;;;;;;;;8.00;4.33;;;;;;;;5073930;27;45642;-63
2022/11/23 03:10:54;;;;;;;;;3.00;3.00;;;;;;;;5092625;27;45805;-63
2022/11/23 03:13:20;;;;;;;;;6.33;5.67;;;;;;;;5091990;27;45396;-63
2022/11/23 03:15:45;;;;;;;;;7.00;5.67;;;;;;;;5092370;27;45696;-63
2022/11/23 03:18:10;;;;;;;;;5.33;4.33;;;;;;;;5092352;27;45359;-64
2022/11/23 03:20:36;;;;;;;;;6.33;5.00;;;;;;;;5092801;27;45330;-63
2022/11/23 03:23:01;;;;;;;;;4.67;4.67;;;;;;;;5092533;27;46170;-64
2022/11/23 03:25:26;;;;;;;;;6.33;6.33;;;;;;;;5092434;27;45889;-64
2022/11/23 03:27:51;;;;;;;;;8.00;4.00;;;;;;;;5092205;27;45792;-63
2022/11/23 03:30:17;;;;;;;;;7.33;4.67;;;;;;;;5092037;27;45631;-64
2022/11/23 03:32:42;;;;;;;;;9.33;6.00;;;;;;;;5091848;27;45725;-63
2022/11/23 03:35:07;;;;;;;;;4.00;4.00;;;;;;;;5091657;27;45355;-63
2022/11/23 03:37:33;;;;;;;;;5.33;4.33;;;;;;;;5073682;27;45279;-65
2022/11/23 03:39:58;;;;;;;;;7.00;5.67;;;;;;;;5072648;27;45414;-64
2022/11/23 03:42:23;;;;;;;;;7.33;6.33;;;;;;;;5086305;27;45537;-62
2022/11/23 03:44:49;;;;;;;;;8.00;5.33;;;;;;;;5091253;27;45368;-63
2022/11/23 03:47:15;;;;;;;;;8.00;6.00;;;;;;;;5076246;27;45417;-64
2022/11/23 03:49:40;;;;;;;;;13.67;6.33;;;;;;;;5074185;27;45305;-63
2022/11/23 03:52:05;;;;;;;;;4.00;4.00;;;;;;;;5093075;27;45425;-63
2022/11/23 03:54:31;;;;;;;;;4.00;4.00;;;;;;;;5095317;27;45343;-64
2022/11/23 03:56:56;;;;;;;;;5.67;5.67;;;;;;;;5095342;27;45530;-64
2022/11/23 03:59:21;;;;;;;;;4.67;4.67;;;;;;;;5094956;27;45541;-63
2022/11/23 04:01:46;;;;;;;;;8.33;7.00;;;;;;;;5095282;27;45376;-62
2022/11/23 04:04:12;;;;;;;;;6.00;4.00;;;;;;;;5081644;27;45426;-62
2022/11/23 04:06:37;;;;;;;;;6.33;5.67;;;;;;;;5095174;27;45558;-64
2022/11/23 04:09:02;;;;;;;;;5.67;5.67;;;;;;;;5095014;27;45592;-64
2022/11/23 04:11:27;;;;;;;;;10.00;6.00;;;;;;;;5094988;27;45719;-64
2022/11/23 04:13:52;;;;;;;;;7.00;5.00;;;;;;;;5094970;27;45526;-64
2022/11/23 04:16:18;;;;;;;;;11.00;6.00;;;;;;;;5092238;27;45600;-64
2022/11/23 04:18:43;;;;;;;;;2.67;2.67;;;;;;;;5083311;27;45415;-64
2022/11/23 04:21:08;;;;;;;;;7.67;5.67;;;;;;;;5095011;27;46046;-64
2022/11/23 04:23:34;;;;;;;;;8.33;6.00;;;;;;;;5076735;27;45792;-62
2022/11/23 04:25:59;;;;;;;;;7.67;7.33;;;;;;;;5095065;27;45598;-64
2022/11/23 04:28:24;;;;;;;;;4.00;4.00;;;;;;;;5076138;27;45465;-63
2022/11/23 04:30:50;;;;;;;;;10.67;6.67;;;;;;;;5094624;27;45357;-64
2022/11/23 04:33:15;;;;;;;;;6.33;5.67;;;;;;;;5094207;27;46180;-63
2022/11/23 04:35:40;;;;;;;;;7.00;6.00;;;;;;;;5076087;27;45416;-64
2022/11/23 04:38:06;;;;;;;;;8.00;7.00;;;;;;;;5094677;27;45355;-62
2022/11/23 04:40:31;;;;;;;;;8.00;7.67;;;;;;;;5076099;27;45656;-64
2022/11/23 04:42:57;;;;;;;;;8.00;7.33;;;;;;;;5087607;27;46291;-64
2022/11/23 04:45:22;;;;;;;;;4.67;4.00;;;;;;;;5093766;27;46392;-64
2022/11/23 04:47:47;;;;;;;;;9.00;5.67;;;;;;;;5094122;27;45352;-62
2022/11/23 04:50:13;;;;;;;;;5.67;4.33;;;;;;;;5094490;27;45353;-65
2022/11/23 04:52:38;;;;;;;;;4.00;3.33;;;;;;;;5094153;27;45696;-64
2022/11/23 04:55:03;;;;;;;;;4.33;4.33;;;;;;;;5094650;27;45736;-63
2022/11/23 04:57:28;;;;;;;;;5.00;4.00;;;;;;;;5093508;27;45807;-64
2022/11/23 04:59:54;;;;;;;;;5.00;3.67;;;;;;;;5093926;27;45619;-64
2022/11/23 05:02:19;;;;;;;;;6.33;5.33;;;;;;;;5092384;27;46046;-64
2022/11/23 05:04:44;;;;;;;;;8.33;6.00;;;;;;;;5093487;27;45394;-63
2022/11/23 05:07:10;;;;;;;;;9.00;6.00;;;;;;;;5078289;27;45546;-64
2022/11/23 05:09:35;;;;;;;;;8.00;7.00;;;;;;;;5070904;27;46578;-64
2022/11/23 05:12:00;;;;;;;;;10.00;6.33;;;;;;;;5091078;27;46527;-66
2022/11/23 05:14:25;;;;;;;;;11.00;7.00;;;;;;;;5094408;27;45612;-64
2022/11/23 05:16:50;;;;;;;;;12.67;7.33;;;;;;;;5094737;27;45319;-64
2022/11/23 05:19:16;;;;;;;;;8.67;8.00;;;;;;;;5094367;27;45576;-63
2022/11/23 05:21:41;;;;;;;;;7.33;7.33;;;;;;;;5094673;27;46130;-66
2022/11/23 05:24:06;;;;;;;;;10.00;8.00;;;;;;;;5094391;27;45644;-65
2022/11/23 05:26:31;;;;;;;;;9.67;8.00;;;;;;;;5094739;27;45274;-63
2022/11/23 05:28:57;;;;;;;;;10.67;7.00;;;;;;;;5094282;27;45275;-64
2022/11/23 05:31:22;;;;;;;;;11.33;8.67;;;;;;;;5076403;27;48103;-64
2022/11/23 05:33:48;;;;;;;;;8.00;7.67;;;;;;;;5094311;27;45336;-64
2022/11/23 05:36:13;;;;;;;;;9.67;7.00;;;;;;;;5094403;27;45826;-65
2022/11/23 05:38:39;;;;;;;;;9.33;9.00;;;;;;;;5094325;27;45698;-67
2022/11/23 05:41:05;;;;;;;;;7.67;7.00;;;;;;;;5075716;27;45501;-66
2022/11/23 05:43:30;;;;;;;;;10.00;6.00;;;;;;;;5075151;27;45522;-65
2022/11/23 05:45:57;;;;;;;;;6.33;5.33;;;;;;;;5093390;27;45415;-64
2022/11/23 05:48:22;;;;;;;;;4.00;2.00;;;;;;;;5093504;27;46184;-64
2022/11/23 05:50:49;;;;;;;;;7.67;5.67;;;;;;;;5092237;27;46575;-65
2022/11/23 05:53:14;;;;;;;;;5.00;5.00;;;;;;;;5093736;27;45794;-65
2022/11/23 05:55:39;;;;;;;;;6.33;3.67;;;;;;;;5093439;27;45351;-66
2022/11/23 05:58:05;;;;;;;;;4.67;4.33;;;;;;;;5093645;27;45351;-64
2022/11/23 06:00:30;;;;;;;;;5.00;5.00;;;;;;;;5085680;27;45795;-67
2022/11/23 06:03:01;;;;;;;;;5.67;3.00;;;;;;;;5086032;27;45638;-64
2022/11/23 06:05:27;;;;;;;;;4.33;4.33;;;;;;;;5093649;27;45541;-67
2022/11/23 06:07:52;;;;;;;;;7.00;5.00;;;;;;;;5093153;27;45696;-65
2022/11/23 06:10:18;;;;;;;;;4.00;4.00;;;;;;;;5092331;27;47006;-64
2022/11/23 06:12:44;;;;;;;;;6.67;6.00;;;;;;;;5092619;27;45606;-63
2022/11/23 06:15:10;;;;;;;;;7.00;4.00;;;;;;;;5092398;27;45301;-65
2022/11/23 06:17:35;;;;;;;;;5.00;3.00;;;;;;;;5096245;27;45937;-64
2022/11/23 06:20:00;;;;;;;;;5.00;5.00;;;;;;;;5097950;27;46485;-65
2022/11/23 06:22:26;;;;;;;;;3.33;2.33;;;;;;;;5084852;27;45667;-66
2022/11/23 06:24:51;;;;;;;;;9.67;6.33;;;;;;;;5081632;27;45784;-65
2022/11/23 06:27:16;;;;;;;;;6.00;6.00;;;;;;;;5082437;27;45293;-65
2022/11/23 06:29:42;;;;;;;;;3.33;3.00;;;;;;;;5092454;27;46870;-65
2022/11/23 06:32:07;;;;;;;;;6.33;5.00;;;;;;;;5074779;27;45654;-66
2022/11/23 06:34:33;;;;;;;;;8.33;5.00;;;;;;;;5086576;27;45397;-65
2022/11/23 06:36:58;;;;;;;;;8.00;6.00;;;;;;;;5084964;27;45304;-65
2022/11/23 06:39:23;;;;;;;;;8.00;7.00;;;;;;;;5091468;27;45427;-64
2022/11/23 06:41:49;;;;;;;;;3.33;3.33;;;;;;;;5093042;27;45648;-64
2022/11/23 06:44:14;;;;;;;;;4.67;4.67;;;;;;;;5071958;27;45924;-66
2022/11/23 06:46:39;;;;;;;;;8.67;8.00;;;;;;;;5081854;27;45825;-67
2022/11/23 06:49:05;;;;;;;;;7.00;6.00;;;;;;;;5090254;27;45542;-65
2022/11/23 06:51:30;;;;;;;;;9.00;8.00;;;;;;;;5088810;27;45380;-66
2022/11/23 06:53:55;;;;;;;;;8.67;8.67;;;;;;;;5087506;27;45364;-67
2022/11/23 06:56:20;;;;;;;;;9.33;4.67;;;;;;;;5074754;27;45919;-65
2022/11/23 06:58:46;;;;;;;;;5.67;4.00;;;;;;;;5092861;27;45417;-65
2022/11/23 07:01:11;;;;;;;;;8.00;7.00;;;;;;;;5092538;27;45629;-63
2022/11/23 07:03:36;;;;;;;;;6.67;6.67;;;;;;;;5083234;27;45527;-65
2022/11/23 07:06:05;;;;;;;;;8.00;5.33;;;;;;;;5065638;27;46036;-67
2022/11/23 07:08:31;;;;;;;;;5.00;5.00;;;;;;;;5084322;27;46440;-65
2022/11/23 07:11:04;;;;;;;;;8.33;6.67;;;;;;;;5085669;27;46815;-65
2022/11/23 07:13:29;;;;;;;;;7.00;6.00;;;;;;;;5085908;27;45338;-65
2022/11/23 07:15:55;;;;;;;;;14.00;7.33;;;;;;;;5080561;27;45798;-65
2022/11/23 07:18:21;;;;;;;;;5.33;5.00;;;;;;;;5070240;27;46894;-66
2022/11/23 07:20:46;;;;;;;;;8.67;7.00;;;;;;;;5082002;27;45613;-66
2022/11/23 07:23:11;;;;;;;;;6.33;6.33;;;;;;;;5068506;27;45400;-64
2022/11/23 07:25:37;;;;;;;;;8.00;7.00;;;;;;;;5088284;27;45524;-64
2022/11/23 07:28:03;;;;;;;;;6.67;5.00;;;;;;;;5086903;27;46150;-65
2022/11/23 07:30:30;;;;;;;;;7.00;7.00;;;;;;;;5062130;27;45951;-66
2022/11/23 07:33:02;;;;;;;;;7.33;4.67;;;;;;;;5088099;27;45674;-65
2022/11/23 07:35:27;;;;;;;;;6.00;5.00;;;;;;;;5076282;27;45541;-66
2022/11/23 07:37:53;;;;;;;;;6.00;6.00;;;;;;;;5082130;27;46259;-65
2022/11/23 07:40:18;;;;;;;;;6.00;5.33;;;;;;;;5094670;27;45788;-65
2022/11/23 07:42:43;;;;;;;;;5.67;5.00;;;;;;;;5084906;27;45510;-67
2022/11/23 07:45:09;;;;;;;;;5.67;5.00;;;;;;;;5087542;27;45623;-66
2022/11/23 07:47:34;;;;;;;;;6.33;6.00;;;;;;;;5085718;27;46022;-67
2022/11/23 07:49:59;;;;;;;;;5.00;3.67;;;;;;;;5087103;27;45681;-65
2022/11/23 07:52:25;;;;;;;;;5.33;4.33;;;;;;;;5086600;27;45496;-66
2022/11/23 07:54:50;;;;;;;;;4.00;4.00;;;;;;;;5092198;27;45391;-64
2022/11/23 07:57:15;;;;;;;;;7.00;4.33;;;;;;;;5093466;27;45818;-65
2022/11/23 07:59:41;;;;;;;;;1.00;1.00;;;;;;;;5093101;27;45761;-65
2022/11/23 08:02:09;;;;;;;;;5.33;3.67;;;;;;;;5092966;27;45446;-65
2022/11/23 08:04:34;;;;;;;;;3.33;1.00;;;;;;;;5093362;27;45749;-63
2022/11/23 08:07:01;;;;;;;;;6.33;3.00;;;;;;;;5074805;27;48459;-62
2022/11/23 08:09:26;;;;;;;;;3.00;3.00;;;;;;;;5093086;27;45710;-65
2022/11/23 08:11:51;;;;;;;;;8.00;3.67;;;;;;;;5073975;27;45627;-63
2022/11/23 08:14:17;;;;;;;;;4.00;2.67;;;;;;;;5092359;27;45684;-66
2022/11/23 08:16:42;;;;;;;;;4.00;4.00;;;;;;;;5092446;27;45518;-66
2022/11/23 08:19:07;;;;;;;;;7.33;6.00;;;;;;;;5093387;27;45574;-65
2022/11/23 08:21:32;;;;;;;;;4.33;4.33;;;;;;;;5083843;27;45421;-64
2022/11/23 08:23:58;;;;;;;;;5.00;5.00;;;;;;;;5083949;27;45763;-63
2022/11/23 08:26:23;;;;;;;;;4.67;3.67;;;;;;;;5091877;27;45697;-66
2022/11/23 08:28:48;;;;;;;;;4.33;3.00;;;;;;;;5091954;27;45411;-65
2022/11/23 08:31:14;;;;;;;;;5.00;2.00;;;;;;;;5091876;27;46202;-63
2022/11/23 08:33:39;;;;;;;;;5.00;2.33;;;;;;;;5090423;27;45892;-65
2022/11/23 08:36:05;;;;;;;;;4.00;4.00;;;;;;;;5090995;27;46062;-63
2022/11/23 08:38:31;;;;;;;;;5.00;4.00;;;;;;;;5092064;27;45974;-63
2022/11/23 08:41:00;;;;;;;;;8.67;5.00;;;;;;;;5091297;27;45990;-65
2022/11/23 08:43:26;;;;;;;;;3.67;3.67;;;;;;;;5091784;27;45649;-65
2022/11/23 08:45:55;;;;;;;;;5.00;4.00;;;;;;;;5092212;27;46007;-65
2022/11/23 08:48:20;;;;;;;;;4.67;3.00;;;;;;;;5092044;27;45733;-66
2022/11/23 08:50:45;;;;;;;;;2.00;2.00;;;;;;;;5090106;27;45699;-66
2022/11/23 08:53:10;;;;;;;;;3.67;3.67;;;;;;;;5092055;27;45605;-65
2022/11/23 08:55:36;;;;;;;;;3.00;3.00;;;;;;;;5091841;27;45364;-65
2022/11/23 08:58:01;;;;;;;;;2.33;2.33;;;;;;;;5092275;27;45536;-65
2022/11/23 09:00:27;;;;;;;;;6.00;3.00;;;;;;;;5072602;27;45402;-65
2022/11/23 09:02:52;;;;;;;;;5.00;4.00;;;;;;;;5091414;27;45765;-65
2022/11/23 09:05:17;;;;;;;;;4.00;3.67;;;;;;;;5073001;27;46132;-64
2022/11/23 09:07:42;;;;;;;;;5.67;3.33;;;;;;;;5091209;27;45509;-65
2022/11/23 09:10:08;;;;;;;;;7.67;4.00;;;;;;;;5091418;27;45686;-64
2022/11/23 09:12:33;;;;;;;;;5.00;3.00;;;;;;;;5091574;27;45632;-63
2022/11/23 09:14:58;;;;;;;;;6.00;3.67;;;;;;;;5073042;27;48323;-65
2022/11/23 09:17:24;;;;;;;;;8.67;3.67;;;;;;;;5092191;27;45783;-65
2022/11/23 09:19:49;;;;;;;;;5.00;5.00;;;;;;;;5091986;27;46060;-65
2022/11/23 09:22:14;;;;;;;;;4.00;4.00;;;;;;;;5091797;27;45761;-64
2022/11/23 09:24:40;;;;;;;;;3.00;3.00;;;;;;;;5091580;27;46097;-66
2022/11/23 09:27:05;;;;;;;;;3.33;2.00;;;;;;;;5092718;27;45605;-66
2022/11/23 09:29:30;;;;;;;;;2.67;2.33;;;;;;;;5090613;27;45713;-68
2022/11/23 09:31:55;;;;;;;;;3.00;2.67;;;;;;;;5083219;27;45645;-69
2022/11/23 09:34:21;;;;;;;;;3.67;3.67;;;;;;;;5091387;27;45394;-67
2022/11/23 09:36:47;;;;;;;;;4.33;3.67;;;;;;;;5081474;27;45762;-68
2022/11/23 09:39:12;;;;;;;;;5.00;4.00;;;;;;;;5090106;27;45853;-72
2022/11/23 09:41:56;;;;;;;;;4.67;3.00;;;;;;;;5092528;27;46124;-74
2022/11/23 09:44:57;;;;;;;;;3.33;3.33;;;;;;;;5091661;27;45527;-71
2022/11/23 09:47:22;;;;;;;;;5.33;4.00;;;;;;;;4988822;28;45548;-68
2022/11/23 09:50:23;;;;;;;;;2.33;2.33;;;;;;;;5059464;27;45391;-69
2022/11/23 09:52:49;;;;;;;;;8.00;4.00;;;;;;;;4988115;28;45669;-68
2022/11/23 09:55:14;;;;;;;;;3.67;3.00;;;;;;;;5066744;27;46177;-68
2022/11/23 09:57:41;;;;;;;;;4.00;3.00;;;;;;;;5092808;27;45682;-68
2022/11/23 10:00:14;;;;;;;;;2.33;2.33;;;;;;;;5089384;27;45486;-65
2022/11/23 10:02:40;;;;;;;;;1.67;1.00;;;;;;;;5080285;27;45901;-69
2022/11/23 10:05:06;;;;;;;;;1.00;1.00;;;;;;;;5090206;27;45793;-65
2022/11/23 10:07:40;;;;;;;;;5.67;1.67;;;;;;;;5072755;27;45391;-67
2022/11/23 10:10:12;;;;;;;;;3.00;3.00;;;;;;;;5090837;27;45591;-65
2022/11/23 10:12:40;;;;;;;;;4.00;4.00;;;;;;;;5078834;27;45481;-66
2022/11/23 10:15:08;;;;;;;;;3.00;3.00;;;;;;;;5090809;27;46566;-66
2022/11/23 10:17:42;;;;;;;;;4.00;4.00;;;;;;;;5096261;27;45705;-66
2022/11/23 10:20:27;;;;;;;;;3.67;2.67;;;;;;;;5089311;27;45545;-65
2022/11/23 10:23:00;;;;;;;;;5.00;3.00;;;;;;;;5076705;27;45758;-66
2022/11/23 10:25:28;;;;;;;;;2.33;2.33;;;;;;;;5067959;27;47156;-67
2022/11/23 10:27:57;;;;;;;;;0.67;0.00;;;;;;;;5090911;27;45398;-66
2022/11/23 10:30:22;;;;;;;;;3.00;2.00;;;;;;;;5092241;27;45551;-67
2022/11/23 10:32:58;;;;;;;;;2.00;2.00;;;;;;;;5084113;27;45581;-73
2022/11/23 10:35:28;;;;;;;;;6.00;3.33;;;;;;;;5080224;27;45821;-71
2022/11/23 10:37:59;;;;;;;;;5.33;3.67;;;;;;;;5087979;27;45889;-70
2022/11/23 10:40:27;;;;;;;;;2.00;2.00;;;;;;;;5085639;27;45791;-70
2022/11/23 10:42:55;;;;;;;;;5.33;4.33;;;;;;;;5086441;27;45497;-72
2022/11/23 10:45:25;;;;;;;;;5.67;4.67;;;;;;;;5083962;27;45703;-68
2022/11/23 10:47:53;;;;;;;;;5.00;4.67;;;;;;;;5085012;27;46007;-70
2022/11/23 10:50:23;;;;;;;;;4.00;2.33;;;;;;;;5090309;27;45698;-69
2022/11/23 10:52:50;;;;;;;;;3.67;3.00;;;;;;;;5090905;27;45758;-68
2022/11/23 10:55:17;;;;;;;;;2.00;2.00;;;;;;;;5072587;27;46901;-70
2022/11/23 10:57:44;;;;;;;;;3.00;3.00;;;;;;;;5093843;27;45517;-69
2022/11/23 11:00:09;;;;;;;;;6.00;2.00;;;;;;;;5092027;27;45420;-71
2022/11/23 11:02:42;;;;;;;;;3.67;3.67;;;;;;;;5075609;27;46902;-68
2022/11/23 11:05:31;;;;;;;;;2.00;2.00;;;;;;;;5083515;27;45414;-70
2022/11/23 11:07:58;;;;;;;;;2.00;2.00;;;;;;;;5073596;27;45894;-71
2022/11/23 11:10:33;;;;;;;;;4.00;2.00;;;;;;;;5093692;27;45626;-71
2022/11/23 11:12:58;;;;;;;;;3.00;2.00;;;;;;;;5075582;27;46430;-78
2022/11/23 11:15:23;;;;;;;;;3.00;3.00;;;;;;;;5094037;27;45375;-75
2022/11/23 11:17:56;;;;;;;;;4.00;3.00;;;;;;;;5087058;27;47100;-75
2022/11/23 11:20:27;;;;;;;;;3.33;3.33;;;;;;;;5096258;27;45681;-78
2022/11/23 11:23:00;;;;;;;;;3.00;3.00;;;;;;;;5087555;27;45978;-76
2022/11/23 11:25:28;;;;;;;;;2.67;2.67;;;;;;;;5093035;27;45794;-74
2022/11/23 11:27:54;;;;;;;;;2.67;2.33;;;;;;;;5108549;22;46542;-68
2022/11/23 11:30:22;;;;;;;;;6.33;4.00;;;;;;;;5127428;27;46057;-69
2022/11/23 11:32:54;;;;;;;;;5.00;4.00;;;;;;;;5132458;27;45443;-69
2022/11/23 11:35:25;;;;;;;;;2.33;2.00;;;;;;;;5132769;27;45432;-69
2022/11/23 11:37:54;;;;;;;;;2.67;2.67;;;;;;;;5122109;27;45316;-69
2022/11/23 11:40:28;;;;;;;;;4.33;3.33;;;;;;;;5123471;27;45635;-68
2022/11/23 11:42:56;;;;;;;;;5.67;5.00;;;;;;;;5127958;27;45505;-67
2022/11/23 11:45:21;;;;;;;;;4.00;4.00;;;;;;;;5109262;27;45984;-66
2022/11/23 11:47:53;;;;;;;;;4.00;2.33;;;;;;;;5105527;27;45944;-66
2022/11/23 11:50:30;;;;;;;;;4.00;3.00;;;;;;;;5099440;27;45707;-66
2022/11/23 11:52:59;;;;;;;;;7.00;4.00;;;;;;;;5101446;27;45492;-64
2022/11/23 11:55:27;;;;;;;;;2.00;2.00;;;;;;;;5103010;27;45836;-66
2022/11/23 11:58:01;;;;;;;;;5.33;1.67;;;;;;;;5106746;27;45866;-65
2022/11/23 12:00:27;;;;;;;;;2.33;2.33;;;;;;;;5099066;27;45824;-66
2022/11/23 12:03:04;;;;;;;;;2.33;1.33;;;;;;;;5096844;27;45856;-66
2022/11/23 12:05:36;;;;;;;;;0.33;0.33;;;;;;;;5102840;27;45453;-65
2022/11/23 12:08:21;;;;;;;;;1.33;1.33;;;;;;;;5097755;27;45642;-66
2022/11/23 12:10:46;;;;;;;;;1.33;1.33;;;;;;;;5103556;27;45565;-65
2022/11/23 12:13:22;;;;;;;;;1.00;1.00;;;;;;;;5095380;27;45745;-67
2022/11/23 12:16:13;;;;;;;;;2.67;1.67;;;;;;;;5101312;27;46526;-66
2022/11/23 12:18:57;;;;;;;;;2.67;2.00;;;;;;;;5082735;27;45710;-66
2022/11/23 12:21:41;;;;;;;;;3.33;3.33;;;;;;;;5107972;27;45861;-66
2022/11/23 12:24:07;;;;;;;;;1.00;1.00;;;;;;;;5106592;27;45776;-66
2022/11/23 12:26:51;;;;;;;;;1.67;1.67;;;;;;;;5103456;27;45747;-66
2022/11/23 12:29:16;;;;;;;;;1.00;1.00;;;;;;;;5110179;27;45746;-64
2022/11/23 12:31:45;;;;;;;;;0.00;0.00;;;;;;;;5104809;27;45520;-65
2022/11/23 12:34:10;;;;;;;;;2.00;2.00;;;;;;;;5099766;27;46021;-66
2022/11/23 12:36:54;;;;;;;;;3.67;1.00;;;;;;;;5106470;27;45857;-66
2022/11/23 12:39:31;;;;;;;;;0.67;0.67;;;;;;;;5104194;27;45485;-66
2022/11/23 12:42:04;;;;;;;;;1.67;1.00;;;;;;;;5102325;27;45898;-65
2022/11/23 12:44:48;;;;;;;;;1.33;0.00;;;;;;;;5106484;27;46360;-65
2022/11/23 12:47:16;;;;;;;;;1.00;1.00;;;;;;;;5105458;27;46236;-63
2022/11/23 12:49:44;;;;;;;;;1.00;1.00;;;;;;;;5101704;27;45723;-64
2022/11/23 12:52:16;;;;;;;;;1.67;1.67;;;;;;;;5102890;27;45725;-64
2022/11/23 12:54:41;;;;;;;;;1.67;0.67;;;;;;;;5102400;27;46617;-65
2022/11/23 12:57:14;;;;;;;;;0.67;0.67;;;;;;;;5100045;27;45524;-65
2022/11/23 12:59:50;;;;;;;;;2.33;1.67;;;;;;;;5103717;27;45431;-66
2022/11/23 13:02:35;;;;;;;;;1.67;0.00;;;;;;;;5105466;27;46382;-64
2022/11/23 13:05:12;;;;;;;;;0.67;0.67;;;;;;;;5188025;22;45729;-66
2022/11/23 13:07:56;;;;;;;;;3.00;0.00;;;;;;;;5100721;27;46956;-66
2022/11/23 13:10:25;;;;;;;;;1.33;0.33;;;;;;;;5094861;27;47559;-66
2022/11/23 13:13:10;;;;;;;;;0.00;0.00;;;;;;;;5096867;27;45767;-64
2022/11/23 13:16:14;;;;;;;;;0.67;0.67;;;;;;;;5098846;27;45628;-65
2022/11/23 13:18:52;;;;;;;;;2.67;0.67;;;;;;;;5028043;28;45509;-66
2022/11/23 13:21:18;;;;;;;;;1.00;1.00;;;;;;;;5019772;28;45862;-64
2022/11/23 13:23:43;;;;;;;;;2.33;1.00;;;;;;;;5068825;27;45721;-65
2022/11/23 13:26:12;;;;;;;;;4.00;1.00;;;;;;;;5102227;27;45844;-65
2022/11/23 13:28:37;;;;;;;;;1.00;1.00;;;;;;;;5097590;27;45669;-64
2022/11/23 13:31:14;;;;;;;;;4.00;1.33;;;;;;;;5095412;27;45616;-65
2022/11/23 13:33:40;;;;;;;;;3.67;1.33;;;;;;;;5103084;27;45792;-66
2022/11/23 13:36:09;;;;;;;;;3.00;2.00;;;;;;;;5104148;27;45629;-65
2022/11/23 13:38:35;;;;;;;;;0.67;0.67;;;;;;;;5109041;27;47173;-64
2022/11/23 13:41:01;;;;;;;;;1.00;1.00;;;;;;;;5105683;27;45916;-64
2022/11/23 13:43:31;;;;;;;;;5.33;2.00;;;;;;;;5103924;27;45591;-65
2022/11/23 13:46:15;;;;;;;;;1.33;0.00;;;;;;;;5102227;27;45607;-64
2022/11/23 13:48:42;;;;;;;;;2.67;2.33;;;;;;;;5099405;27;46442;-66
2022/11/23 13:51:08;;;;;;;;;1.67;0.67;;;;;;;;5100259;27;45435;-65
2022/11/23 13:53:36;;;;;;;;;2.67;1.00;;;;;;;;5106076;27;45879;-66
2022/11/23 13:56:16;;;;;;;;;2.00;1.00;;;;;;;;5102719;27;45826;-65
2022/11/23 13:58:49;;;;;;;;;2.33;1.00;;;;;;;;5106296;27;46738;-64
2022/11/23 14:01:35;;;;;;;;;3.00;1.00;;;;;;;;5101357;27;45601;-65
2022/11/23 14:04:19;;;;;;;;;2.33;1.33;;;;;;;;5100893;27;45687;-65
2022/11/23 14:06:55;;;;;;;;;3.33;0.33;;;;;;;;5098338;27;46790;-65
2022/11/23 14:09:27;;;;;;;;;2.33;1.00;;;;;;;;5096269;27;45732;-66
2022/11/23 14:11:59;;;;;;;;;4.67;0.67;;;;;;;;5102861;27;45882;-67
2022/11/23 14:14:27;;;;;;;;;2.00;1.00;;;;;;;;5101869;27;45908;-64
2022/11/23 14:16:56;;;;;;;;;0.67;0.67;;;;;;;;5096636;27;47030;-66
2022/11/23 14:19:40;;;;;;;;;3.33;2.00;;;;;;;;5101063;27;47271;-67
2022/11/23 14:22:05;;;;;;;;;4.00;2.00;;;;;;;;5085377;27;45441;-65
2022/11/23 14:24:53;;;;;;;;;3.33;2.00;;;;;;;;5096955;27;45952;-65
2022/11/23 14:27:29;;;;;;;;;0.67;0.67;;;;;;;;5095379;27;45741;-64
2022/11/23 14:29:54;;;;;;;;;3.00;1.67;;;;;;;;5102351;27;45850;-65
2022/11/23 14:32:27;;;;;;;;;4.00;0.00;;;;;;;;5102944;22;46047;-85
2022/11/23 14:35:01;;;;;;;;;1.67;0.67;;;;;;;;5091285;27;45738;-85
2022/11/23 14:37:51;;;;;;;;;3.67;0.67;;;;;;;;5072189;27;46534;-84
2022/11/23 14:40:26;;;;;;;;;1.33;0.67;;;;;;;;5068804;27;46368;-85
2022/11/23 14:42:53;;;;;;;;;3.00;1.00;;;;;;;;5073098;27;45770;-84
2022/11/23 14:45:27;;;;;;;;;5.00;1.33;;;;;;;;5081181;27;45818;-85
2022/11/23 14:47:52;;;;;;;;;4.00;2.00;;;;;;;;5083845;27;45896;-83
2022/11/23 14:50:21;;;;;;;;;0.67;0.67;;;;;;;;5088516;27;46528;-84
2022/11/23 14:52:47;;;;;;;;;2.67;1.00;;;;;;;;5072165;27;45921;-84
2022/11/23 14:55:23;;;;;;;;;2.33;1.00;;;;;;;;5065432;27;45485;-84
2022/11/23 14:57:51;;;;;;;;;0.67;0.33;;;;;;;;5091126;27;45601;-85
2022/11/23 15:00:31;;;;;;;;;1.33;0.67;;;;;;;;5109750;27;45448;-84
2022/11/23 15:02:59;;;;;;;;;0.67;0.67;;;;;;;;5096785;27;44792;-84
2022/11/23 15:05:30;;;;;;;;;4.67;1.33;;;;;;;;5103479;27;45264;-84
2022/11/23 15:07:55;;;;;;;;;5.67;1.67;;;;;;;;5113059;27;44857;-84
2022/11/23 15:10:29;;;;;;;;;2.67;1.67;;;;;;;;5100786;27;47201;-84
2022/11/23 15:12:54;;;;;;;;;6.67;1.33;;;;;;;;5098754;27;46043;-84
2022/11/23 15:15:21;;;;;;;;;1.00;1.00;;;;;;;;5110948;27;45635;-84
2022/11/23 15:17:54;;;;;;;;;2.33;1.67;;;;;;;;5098300;27;45638;-81
2022/11/23 15:20:22;;;;;;;;;1.67;1.67;;;;;;;;5099142;27;47242;-84
2022/11/23 15:22:48;;;;;;;;;5.67;3.33;;;;;;;;5115426;27;45415;-82
2022/11/23 15:25:15;;;;;;;;;3.00;1.33;;;;;;;;5085178;27;45408;-83
2022/11/23 15:27:41;;;;;;;;;1.33;1.33;;;;;;;;5095896;27;45197;-83
2022/11/23 15:30:17;;;;;;;;;0.67;0.67;;;;;;;;5098215;27;46692;-83
2022/11/23 15:32:42;;;;;;;;;4.67;3.00;;;;;;;;5110539;27;45675;-84